sensor_id;sensor_type;location;lat;lon;timestamp;P1;durP1;ratioP1;P2;durP2;ratioP2
50104;SDS011;47690;39.202;-77.198;2023-02-28T00:00:13;4.82;;;3.05;;
50104;SDS011;47690;39.202;-77.198;2023-02-28T00:02:43;3.33;;;2.72;;
50104;SDS011;47690;39.202;-77.198;2023-02-28T00:05:14;4.22;;;2.92;;
50104;SDS011;47690;39.202;-77.198;2023-02-28T00:07:46;3.60;;;2.88;;
50104;SDS011;47690;39.202;-77.198;2023-02-28T00:10:20;3.72;;;2.85;;
50104;SDS011;47690;39.202;-77.198;2023-02-28T00:12:58;4.65;;;2.83;;
50104;SDS011;47690;39.202;-77.198;2023-02-28T00:15:32;3.30;;;3.00;;
50104;SDS011;47690;39.202;-77.198;2023-02-28T00:18:02;4.25;;;2.90;;
50104;SDS011;47690;39.202;-77.198;2023-02-28T00:20:31;4.07;;;3.30;;
50104;SDS011;47690;39.202;-77.198;2023-02-28T00:23:00;5.35;;;3.30;;
50104;SDS011;47690;39.202;-77.198;2023-02-28T00:25:30;4.00;;;3.10;;
50104;SDS011;47690;39.202;-77.198;2023-02-28T00:27:59;5.03;;;3.35;;
50104;SDS011;47690;39.202;-77.198;2023-02-28T00:30:28;3.22;;;2.90;;
50104;SDS011;47690;39.202;-77.198;2023-02-28T00:32:56;4.88;;;3.25;;
50104;SDS011;47690;39.202;-77.198;2023-02-28T00:35:28;4.28;;;3.38;;
50104;SDS011;47690;39.202;-77.198;2023-02-28T00:37:56;4.88;;;3.42;;
50104;SDS011;47690;39.202;-77.198;2023-02-28T00:40:28;4.80;;;3.20;;
50104;SDS011;47690;39.202;-77.198;2023-02-28T00:42:59;5.07;;;3.33;;
50104;SDS011;47690;39.202;-77.198;2023-02-28T00:45:29;4.03;;;3.33;;
50104;SDS011;47690;39.202;-77.198;2023-02-28T00:47:58;5.50;;;3.45;;
50104;SDS011;47690;39.202;-77.198;2023-02-28T00:50:28;4.80;;;3.50;;
50104;SDS011;47690;39.202;-77.198;2023-02-28T00:52:59;4.20;;;3.25;;
50104;SDS011;47690;39.202;-77.198;2023-02-28T00:55:28;3.88;;;2.72;;
50104;SDS011;47690;39.202;-77.198;2023-02-28T00:57:56;3.00;;;2.60;;
50104;SDS011;47690;39.202;-77.198;2023-02-28T01:00:26;3.72;;;2.95;;
50104;SDS011;47690;39.202;-77.198;2023-02-28T01:02:56;3.65;;;3.08;;
50104;SDS011;47690;39.202;-77.198;2023-02-28T01:05:26;3.33;;;2.88;;
50104;SDS011;47690;39.202;-77.198;2023-02-28T01:07:56;4.65;;;3.25;;
50104;SDS011;47690;39.202;-77.198;2023-02-28T01:10:26;3.47;;;2.78;;
50104;SDS011;47690;39.202;-77.198;2023-02-28T01:13:00;3.72;;;2.63;;
50104;SDS011;47690;39.202;-77.198;2023-02-28T01:15:30;2.63;;;2.40;;
50104;SDS011;47690;39.202;-77.198;2023-02-28T01:18:00;3.38;;;2.80;;
50104;SDS011;47690;39.202;-77.198;2023-02-28T01:20:31;4.47;;;2.92;;
50104;SDS011;47690;39.202;-77.198;2023-02-28T01:23:01;3.55;;;2.80;;
50104;SDS011;47690;39.202;-77.198;2023-02-28T01:25:30;4.55;;;2.78;;
50104;SDS011;47690;39.202;-77.198;2023-02-28T01:28:04;3.00;;;2.60;;
50104;SDS011;47690;39.202;-77.198;2023-02-28T01:30:34;4.25;;;2.95;;
50104;SDS011;47690;39.202;-77.198;2023-02-28T01:33:03;3.72;;;2.92;;
50104;SDS011;47690;39.202;-77.198;2023-02-28T01:35:35;4.85;;;3.00;;
50104;SDS011;47690;39.202;-77.198;2023-02-28T01:38:05;3.45;;;3.05;;
50104;SDS011;47690;39.202;-77.198;2023-02-28T01:40:48;3.70;;;3.13;;
50104;SDS011;47690;39.202;-77.198;2023-02-28T01:46:12;4.18;;;2.85;;
50104;SDS011;47690;39.202;-77.198;2023-02-28T01:48:53;4.13;;;3.15;;
50104;SDS011;47690;39.202;-77.198;2023-02-28T01:51:33;4.05;;;2.88;;
50104;SDS011;47690;39.202;-77.198;2023-02-28T01:54:09;3.47;;;2.85;;
50104;SDS011;47690;39.202;-77.198;2023-02-28T01:56:43;5.10;;;3.20;;
50104;SDS011;47690;39.202;-77.198;2023-02-28T01:59:22;3.78;;;3.05;;
50104;SDS011;47690;39.202;-77.198;2023-02-28T02:02:01;3.22;;;2.67;;
50104;SDS011;47690;39.202;-77.198;2023-02-28T02:04:37;3.85;;;3.10;;
50104;SDS011;47690;39.202;-77.198;2023-02-28T02:07:12;3.33;;;2.72;;
50104;SDS011;47690;39.202;-77.198;2023-02-28T02:09:44;3.20;;;2.72;;
50104;SDS011;47690;39.202;-77.198;2023-02-28T02:12:29;6.38;;;3.20;;
50104;SDS011;47690;39.202;-77.198;2023-02-28T02:21:35;4.22;;;3.15;;
50104;SDS011;47690;39.202;-77.198;2023-02-28T02:27:03;3.70;;;2.95;;
50104;SDS011;47690;39.202;-77.198;2023-02-28T02:29:48;5.18;;;3.17;;
50104;SDS011;47690;39.202;-77.198;2023-02-28T02:37:42;3.92;;;3.20;;
50104;SDS011;47690;39.202;-77.198;2023-02-28T02:40:23;3.85;;;2.97;;
50104;SDS011;47690;39.202;-77.198;2023-02-28T02:43:06;3.08;;;2.75;;
50104;SDS011;47690;39.202;-77.198;2023-02-28T02:45:48;3.72;;;3.00;;
50104;SDS011;47690;39.202;-77.198;2023-02-28T02:48:25;3.38;;;2.88;;
50104;SDS011;47690;39.202;-77.198;2023-02-28T02:50:59;4.13;;;3.22;;
50104;SDS011;47690;39.202;-77.198;2023-02-28T02:53:34;4.20;;;3.47;;
50104;SDS011;47690;39.202;-77.198;2023-02-28T02:56:07;3.92;;;3.25;;
50104;SDS011;47690;39.202;-77.198;2023-02-28T02:58:38;5.28;;;3.40;;
50104;SDS011;47690;39.202;-77.198;2023-02-28T03:01:10;5.03;;;3.35;;
50104;SDS011;47690;39.202;-77.198;2023-02-28T03:03:46;4.45;;;3.30;;
50104;SDS011;47690;39.202;-77.198;2023-02-28T03:06:16;4.10;;;3.15;;
50104;SDS011;47690;39.202;-77.198;2023-02-28T03:08:44;4.30;;;3.22;;
50104;SDS011;47690;39.202;-77.198;2023-02-28T03:11:13;4.35;;;3.20;;
50104;SDS011;47690;39.202;-77.198;2023-02-28T03:19:15;4.93;;;3.67;;
50104;SDS011;47690;39.202;-77.198;2023-02-28T03:24:54;3.40;;;3.00;;
50104;SDS011;47690;39.202;-77.198;2023-02-28T03:27:54;4.03;;;3.10;;
50104;SDS011;47690;39.202;-77.198;2023-02-28T03:33:30;3.58;;;2.78;;
50104;SDS011;47690;39.202;-77.198;2023-02-28T03:36:17;3.85;;;2.60;;
50104;SDS011;47690;39.202;-77.198;2023-02-28T03:38:49;3.33;;;2.58;;
50104;SDS011;47690;39.202;-77.198;2023-02-28T03:41:31;3.13;;;2.60;;
50104;SDS011;47690;39.202;-77.198;2023-02-28T03:44:15;3.13;;;2.60;;
50104;SDS011;47690;39.202;-77.198;2023-02-28T03:47:24;3.85;;;2.80;;
50104;SDS011;47690;39.202;-77.198;2023-02-28T03:50:43;4.15;;;2.83;;
50104;SDS011;47690;39.202;-77.198;2023-02-28T03:55:50;3.35;;;2.60;;
50104;SDS011;47690;39.202;-77.198;2023-02-28T03:59:28;3.13;;;2.80;;
50104;SDS011;47690;39.202;-77.198;2023-02-28T04:01:54;3.17;;;2.65;;
50104;SDS011;47690;39.202;-77.198;2023-02-28T04:04:24;3.35;;;2.58;;
50104;SDS011;47690;39.202;-77.198;2023-02-28T04:07:00;3.03;;;2.33;;
50104;SDS011;47690;39.202;-77.198;2023-02-28T04:09:32;2.97;;;2.65;;
50104;SDS011;47690;39.202;-77.198;2023-02-28T04:12:00;3.17;;;2.53;;
50104;SDS011;47690;39.202;-77.198;2023-02-28T04:14:29;3.65;;;2.70;;
50104;SDS011;47690;39.202;-77.198;2023-02-28T04:16:58;3.03;;;2.72;;
50104;SDS011;47690;39.202;-77.198;2023-02-28T04:19:28;3.67;;;2.75;;
50104;SDS011;47690;39.202;-77.198;2023-02-28T04:21:56;3.20;;;2.90;;
50104;SDS011;47690;39.202;-77.198;2023-02-28T04:24:26;2.88;;;2.58;;
50104;SDS011;47690;39.202;-77.198;2023-02-28T04:26:57;3.33;;;2.60;;
50104;SDS011;47690;39.202;-77.198;2023-02-28T04:29:29;3.95;;;2.90;;
50104;SDS011;47690;39.202;-77.198;2023-02-28T04:32:02;4.28;;;2.80;;
50104;SDS011;47690;39.202;-77.198;2023-02-28T04:34:32;3.28;;;2.70;;
50104;SDS011;47690;39.202;-77.198;2023-02-28T04:37:02;3.35;;;2.60;;
50104;SDS011;47690;39.202;-77.198;2023-02-28T04:39:40;4.35;;;2.50;;
50104;SDS011;47690;39.202;-77.198;2023-02-28T04:42:10;2.60;;;2.40;;
50104;SDS011;47690;39.202;-77.198;2023-02-28T04:44:40;2.75;;;2.47;;
50104;SDS011;47690;39.202;-77.198;2023-02-28T04:47:09;2.70;;;2.33;;
50104;SDS011;47690;39.202;-77.198;2023-02-28T04:49:39;2.47;;;2.28;;
50104;SDS011;47690;39.202;-77.198;2023-02-28T04:52:09;2.67;;;2.35;;
50104;SDS011;47690;39.202;-77.198;2023-02-28T04:54:38;2.55;;;2.10;;
50104;SDS011;47690;39.202;-77.198;2023-02-28T04:57:07;2.53;;;2.30;;
50104;SDS011;47690;39.202;-77.198;2023-02-28T04:59:36;2.72;;;2.20;;
50104;SDS011;47690;39.202;-77.198;2023-02-28T05:02:04;4.00;;;2.47;;
50104;SDS011;47690;39.202;-77.198;2023-02-28T05:04:35;2.97;;;2.50;;
50104;SDS011;47690;39.202;-77.198;2023-02-28T05:07:04;2.35;;;2.13;;
50104;SDS011;47690;39.202;-77.198;2023-02-28T05:09:34;2.95;;;2.40;;
50104;SDS011;47690;39.202;-77.198;2023-02-28T05:12:02;2.72;;;2.40;;
50104;SDS011;47690;39.202;-77.198;2023-02-28T05:14:32;2.40;;;2.20;;
50104;SDS011;47690;39.202;-77.198;2023-02-28T05:17:00;2.40;;;2.10;;
50104;SDS011;47690;39.202;-77.198;2023-02-28T05:19:28;2.50;;;2.28;;
50104;SDS011;47690;39.202;-77.198;2023-02-28T05:21:59;2.42;;;2.13;;
50104;SDS011;47690;39.202;-77.198;2023-02-28T05:24:28;2.33;;;2.13;;
50104;SDS011;47690;39.202;-77.198;2023-02-28T05:26:56;2.28;;;2.08;;
50104;SDS011;47690;39.202;-77.198;2023-02-28T05:29:28;2.60;;;2.20;;
50104;SDS011;47690;39.202;-77.198;2023-02-28T05:31:59;2.60;;;2.40;;
50104;SDS011;47690;39.202;-77.198;2023-02-28T05:34:28;2.25;;;2.05;;
50104;SDS011;47690;39.202;-77.198;2023-02-28T05:36:59;2.83;;;2.25;;
50104;SDS011;47690;39.202;-77.198;2023-02-28T05:39:29;2.55;;;2.30;;
50104;SDS011;47690;39.202;-77.198;2023-02-28T05:41:59;2.40;;;2.10;;
50104;SDS011;47690;39.202;-77.198;2023-02-28T05:44:29;2.08;;;1.88;;
50104;SDS011;47690;39.202;-77.198;2023-02-28T05:46:59;2.40;;;2.20;;
50104;SDS011;47690;39.202;-77.198;2023-02-28T05:49:29;2.50;;;2.30;;
50104;SDS011;47690;39.202;-77.198;2023-02-28T05:51:59;2.63;;;2.20;;
50104;SDS011;47690;39.202;-77.198;2023-02-28T05:54:32;2.10;;;1.90;;
50104;SDS011;47690;39.202;-77.198;2023-02-28T05:57:02;2.13;;;1.92;;
50104;SDS011;47690;39.202;-77.198;2023-02-28T05:59:39;2.30;;;2.10;;
50104;SDS011;47690;39.202;-77.198;2023-02-28T06:02:12;2.13;;;1.92;;
50104;SDS011;47690;39.202;-77.198;2023-02-28T06:04:42;2.13;;;1.92;;
50104;SDS011;47690;39.202;-77.198;2023-02-28T06:07:11;2.25;;;2.05;;
50104;SDS011;47690;39.202;-77.198;2023-02-28T06:09:41;2.20;;;2.00;;
50104;SDS011;47690;39.202;-77.198;2023-02-28T06:12:10;1.92;;;1.83;;
50104;SDS011;47690;39.202;-77.198;2023-02-28T06:14:40;2.47;;;2.00;;
50104;SDS011;47690;39.202;-77.198;2023-02-28T06:17:10;2.50;;;2.10;;
50104;SDS011;47690;39.202;-77.198;2023-02-28T06:19:39;2.03;;;1.80;;
50104;SDS011;47690;39.202;-77.198;2023-02-28T06:22:10;1.70;;;1.60;;
50104;SDS011;47690;39.202;-77.198;2023-02-28T06:24:39;2.30;;;2.00;;
50104;SDS011;47690;39.202;-77.198;2023-02-28T06:27:08;2.08;;;1.90;;
50104;SDS011;47690;39.202;-77.198;2023-02-28T06:29:37;2.00;;;1.80;;
50104;SDS011;47690;39.202;-77.198;2023-02-28T06:32:08;1.95;;;1.85;;
50104;SDS011;47690;39.202;-77.198;2023-02-28T06:34:37;2.20;;;2.00;;
50104;SDS011;47690;39.202;-77.198;2023-02-28T06:37:07;2.03;;;1.85;;
50104;SDS011;47690;39.202;-77.198;2023-02-28T06:39:36;2.10;;;1.90;;
50104;SDS011;47690;39.202;-77.198;2023-02-28T06:42:06;1.77;;;1.67;;
50104;SDS011;47690;39.202;-77.198;2023-02-28T06:44:35;1.80;;;1.70;;
50104;SDS011;47690;39.202;-77.198;2023-02-28T06:47:04;2.10;;;1.90;;
50104;SDS011;47690;39.202;-77.198;2023-02-28T06:49:34;2.17;;;1.98;;
50104;SDS011;47690;39.202;-77.198;2023-02-28T06:52:04;1.73;;;1.63;;
50104;SDS011;47690;39.202;-77.198;2023-02-28T06:54:35;2.40;;;1.70;;
50104;SDS011;47690;39.202;-77.198;2023-02-28T06:57:04;2.10;;;1.90;;
50104;SDS011;47690;39.202;-77.198;2023-02-28T06:59:34;1.90;;;1.80;;
50104;SDS011;47690;39.202;-77.198;2023-02-28T07:02:04;1.63;;;1.52;;
50104;SDS011;47690;39.202;-77.198;2023-02-28T07:04:35;2.53;;;2.00;;
50104;SDS011;47690;39.202;-77.198;2023-02-28T07:07:04;2.10;;;1.90;;
50104;SDS011;47690;39.202;-77.198;2023-02-28T07:09:34;2.17;;;1.98;;
50104;SDS011;47690;39.202;-77.198;2023-02-28T07:12:04;1.83;;;1.73;;
50104;SDS011;47690;39.202;-77.198;2023-02-28T07:14:36;2.28;;;2.08;;
50104;SDS011;47690;39.202;-77.198;2023-02-28T07:17:07;1.85;;;1.75;;
50104;SDS011;47690;39.202;-77.198;2023-02-28T07:19:36;1.90;;;1.80;;
50104;SDS011;47690;39.202;-77.198;2023-02-28T07:22:09;1.75;;;1.65;;
50104;SDS011;47690;39.202;-77.198;2023-02-28T07:24:42;2.10;;;1.90;;
50104;SDS011;47690;39.202;-77.198;2023-02-28T07:27:15;2.20;;;2.00;;
50104;SDS011;47690;39.202;-77.198;2023-02-28T07:29:52;1.85;;;1.70;;
50104;SDS011;47690;39.202;-77.198;2023-02-28T07:32:24;1.80;;;1.70;;
50104;SDS011;47690;39.202;-77.198;2023-02-28T07:34:54;1.70;;;1.60;;
50104;SDS011;47690;39.202;-77.198;2023-02-28T07:37:26;1.92;;;1.83;;
50104;SDS011;47690;39.202;-77.198;2023-02-28T07:39:59;1.92;;;1.80;;
50104;SDS011;47690;39.202;-77.198;2023-02-28T07:42:29;2.08;;;1.88;;
50104;SDS011;47690;39.202;-77.198;2023-02-28T07:44:59;2.10;;;1.90;;
50104;SDS011;47690;39.202;-77.198;2023-02-28T07:47:31;2.20;;;2.00;;
50104;SDS011;47690;39.202;-77.198;2023-02-28T07:50:01;3.25;;;1.95;;
50104;SDS011;47690;39.202;-77.198;2023-02-28T07:52:30;1.83;;;1.73;;
50104;SDS011;47690;39.202;-77.198;2023-02-28T07:55:01;2.10;;;1.90;;
50104;SDS011;47690;39.202;-77.198;2023-02-28T07:57:34;1.95;;;1.80;;
50104;SDS011;47690;39.202;-77.198;2023-02-28T08:00:04;1.92;;;1.73;;
50104;SDS011;47690;39.202;-77.198;2023-02-28T08:02:40;2.03;;;1.90;;
50104;SDS011;47690;39.202;-77.198;2023-02-28T08:05:09;2.03;;;1.83;;
50104;SDS011;47690;39.202;-77.198;2023-02-28T08:07:38;1.98;;;1.88;;
50104;SDS011;47690;39.202;-77.198;2023-02-28T08:10:08;1.80;;;1.70;;
50104;SDS011;47690;39.202;-77.198;2023-02-28T08:12:39;1.95;;;1.85;;
50104;SDS011;47690;39.202;-77.198;2023-02-28T08:15:09;2.05;;;1.85;;
50104;SDS011;47690;39.202;-77.198;2023-02-28T08:17:38;2.20;;;2.00;;
50104;SDS011;47690;39.202;-77.198;2023-02-28T08:20:08;2.10;;;1.90;;
50104;SDS011;47690;39.202;-77.198;2023-02-28T08:22:39;2.25;;;1.98;;
50104;SDS011;47690;39.202;-77.198;2023-02-28T08:25:10;2.40;;;2.20;;
50104;SDS011;47690;39.202;-77.198;2023-02-28T08:27:42;2.25;;;2.03;;
50104;SDS011;47690;39.202;-77.198;2023-02-28T08:30:13;2.97;;;2.20;;
50104;SDS011;47690;39.202;-77.198;2023-02-28T08:32:42;2.10;;;1.90;;
50104;SDS011;47690;39.202;-77.198;2023-02-28T08:35:12;2.45;;;2.20;;
50104;SDS011;47690;39.202;-77.198;2023-02-28T08:37:42;2.67;;;2.17;;
50104;SDS011;47690;39.202;-77.198;2023-02-28T08:40:12;3.13;;;2.40;;
50104;SDS011;47690;39.202;-77.198;2023-02-28T08:42:47;2.67;;;2.08;;
50104;SDS011;47690;39.202;-77.198;2023-02-28T08:45:16;2.30;;;2.10;;
50104;SDS011;47690;39.202;-77.198;2023-02-28T08:47:44;2.38;;;2.17;;
50104;SDS011;47690;39.202;-77.198;2023-02-28T08:50:14;2.67;;;2.42;;
50104;SDS011;47690;39.202;-77.198;2023-02-28T08:52:44;3.25;;;2.10;;
50104;SDS011;47690;39.202;-77.198;2023-02-28T08:55:14;2.53;;;2.20;;
50104;SDS011;47690;39.202;-77.198;2023-02-28T08:57:44;2.70;;;2.20;;
50104;SDS011;47690;39.202;-77.198;2023-02-28T09:00:14;2.58;;;2.38;;
50104;SDS011;47690;39.202;-77.198;2023-02-28T09:02:44;2.67;;;2.20;;
50104;SDS011;47690;39.202;-77.198;2023-02-28T09:05:14;2.63;;;2.33;;
50104;SDS011;47690;39.202;-77.198;2023-02-28T09:07:44;2.50;;;2.30;;
50104;SDS011;47690;39.202;-77.198;2023-02-28T09:10:16;3.10;;;2.40;;
50104;SDS011;47690;39.202;-77.198;2023-02-28T09:12:45;2.80;;;2.50;;
50104;SDS011;47690;39.202;-77.198;2023-02-28T09:15:19;2.35;;;2.15;;
50104;SDS011;47690;39.202;-77.198;2023-02-28T09:17:48;2.33;;;1.98;;
50104;SDS011;47690;39.202;-77.198;2023-02-28T09:20:17;2.67;;;2.42;;
50104;SDS011;47690;39.202;-77.198;2023-02-28T09:22:46;2.58;;;2.35;;
50104;SDS011;47690;39.202;-77.198;2023-02-28T09:25:16;2.40;;;2.20;;
50104;SDS011;47690;39.202;-77.198;2023-02-28T09:27:47;2.40;;;2.20;;
50104;SDS011;47690;39.202;-77.198;2023-02-28T09:30:16;2.45;;;2.25;;
50104;SDS011;47690;39.202;-77.198;2023-02-28T09:32:46;2.67;;;2.30;;
50104;SDS011;47690;39.202;-77.198;2023-02-28T09:35:21;2.80;;;2.50;;
50104;SDS011;47690;39.202;-77.198;2023-02-28T09:37:56;2.20;;;2.00;;
50104;SDS011;47690;39.202;-77.198;2023-02-28T09:40:28;2.50;;;2.30;;
50104;SDS011;47690;39.202;-77.198;2023-02-28T09:43:01;3.05;;;2.38;;
50104;SDS011;47690;39.202;-77.198;2023-02-28T09:45:33;2.60;;;2.40;;
50104;SDS011;47690;39.202;-77.198;2023-02-28T09:48:12;2.63;;;2.40;;
50104;SDS011;47690;39.202;-77.198;2023-02-28T09:50:48;2.55;;;2.30;;
50104;SDS011;47690;39.202;-77.198;2023-02-28T09:53:33;2.20;;;2.00;;
50104;SDS011;47690;39.202;-77.198;2023-02-28T09:56:12;2.50;;;2.15;;
50104;SDS011;47690;39.202;-77.198;2023-02-28T09:58:53;2.47;;;2.25;;
50104;SDS011;47690;39.202;-77.198;2023-02-28T10:01:33;2.50;;;2.30;;
50104;SDS011;47690;39.202;-77.198;2023-02-28T10:09:59;2.20;;;2.00;;
50104;SDS011;47690;39.202;-77.198;2023-02-28T10:12:37;2.58;;;2.38;;
50104;SDS011;47690;39.202;-77.198;2023-02-28T10:15:16;2.42;;;2.20;;
50104;SDS011;47690;39.202;-77.198;2023-02-28T10:17:47;2.40;;;2.20;;
50104;SDS011;47690;39.202;-77.198;2023-02-28T10:20:37;2.38;;;2.17;;
50104;SDS011;47690;39.202;-77.198;2023-02-28T10:23:28;2.40;;;2.20;;
50104;SDS011;47690;39.202;-77.198;2023-02-28T10:26:05;2.47;;;2.28;;
50104;SDS011;47690;39.202;-77.198;2023-02-28T10:28:41;2.60;;;2.40;;
50104;SDS011;47690;39.202;-77.198;2023-02-28T10:31:17;2.30;;;2.10;;
50104;SDS011;47690;39.202;-77.198;2023-02-28T10:33:50;2.40;;;2.20;;
50104;SDS011;47690;39.202;-77.198;2023-02-28T10:36:20;2.35;;;2.15;;
50104;SDS011;47690;39.202;-77.198;2023-02-28T10:38:53;2.40;;;2.17;;
50104;SDS011;47690;39.202;-77.198;2023-02-28T10:41:31;2.47;;;2.27;;
50104;SDS011;47690;39.202;-77.198;2023-02-28T10:44:17;2.40;;;2.10;;
50104;SDS011;47690;39.202;-77.198;2023-02-28T10:46:52;2.20;;;2.00;;
50104;SDS011;47690;39.202;-77.198;2023-02-28T10:49:27;2.20;;;2.00;;
50104;SDS011;47690;39.202;-77.198;2023-02-28T10:52:00;2.20;;;2.00;;
50104;SDS011;47690;39.202;-77.198;2023-02-28T10:54:30;2.30;;;2.05;;
50104;SDS011;47690;39.202;-77.198;2023-02-28T10:57:21;2.30;;;2.10;;
50104;SDS011;47690;39.202;-77.198;2023-02-28T11:00:08;2.50;;;2.13;;
50104;SDS011;47690;39.202;-77.198;2023-02-28T11:02:47;2.20;;;2.00;;
50104;SDS011;47690;39.202;-77.198;2023-02-28T11:05:23;3.55;;;2.40;;
50104;SDS011;47690;39.202;-77.198;2023-02-28T11:10:47;2.15;;;1.95;;
50104;SDS011;47690;39.202;-77.198;2023-02-28T11:13:27;3.50;;;2.10;;
50104;SDS011;47690;39.202;-77.198;2023-02-28T11:16:01;2.20;;;2.00;;
50104;SDS011;47690;39.202;-77.198;2023-02-28T11:21:08;2.28;;;2.08;;
50104;SDS011;47690;39.202;-77.198;2023-02-28T11:23:45;1.92;;;1.83;;
50104;SDS011;47690;39.202;-77.198;2023-02-28T11:26:16;2.30;;;1.98;;
50104;SDS011;47690;39.202;-77.198;2023-02-28T11:29:15;2.20;;;2.00;;
50104;SDS011;47690;39.202;-77.198;2023-02-28T11:32:31;2.28;;;1.90;;
50104;SDS011;47690;39.202;-77.198;2023-02-28T11:34:40;2.10;;;1.90;;
50104;SDS011;47690;39.202;-77.198;2023-02-28T11:37:20;2.10;;;1.90;;
50104;SDS011;47690;39.202;-77.198;2023-02-28T11:39:49;2.08;;;1.90;;
50104;SDS011;47690;39.202;-77.198;2023-02-28T11:50:37;2.25;;;2.05;;
50104;SDS011;47690;39.202;-77.198;2023-02-28T11:56:31;2.30;;;2.10;;
50104;SDS011;47690;39.202;-77.198;2023-02-28T12:05:08;2.30;;;2.10;;
50104;SDS011;47690;39.202;-77.198;2023-02-28T12:12:58;2.25;;;1.92;;
50104;SDS011;47690;39.202;-77.198;2023-02-28T12:15:51;2.50;;;2.00;;
50104;SDS011;47690;39.202;-77.198;2023-02-28T12:24:39;2.22;;;2.03;;
50104;SDS011;47690;39.202;-77.198;2023-02-28T12:27:13;2.00;;;1.80;;
50104;SDS011;47690;39.202;-77.198;2023-02-28T12:29:50;2.30;;;2.10;;
50104;SDS011;47690;39.202;-77.198;2023-02-28T12:32:30;2.20;;;1.90;;
50104;SDS011;47690;39.202;-77.198;2023-02-28T12:37:45;2.45;;;1.95;;
50104;SDS011;47690;39.202;-77.198;2023-02-28T12:40:21;2.20;;;2.00;;
50104;SDS011;47690;39.202;-77.198;2023-02-28T12:43:04;2.20;;;2.00;;
50104;SDS011;47690;39.202;-77.198;2023-02-28T12:48:13;2.30;;;2.10;;
50104;SDS011;47690;39.202;-77.198;2023-02-28T12:50:49;2.15;;;1.98;;
50104;SDS011;47690;39.202;-77.198;2023-02-28T12:56:18;2.20;;;2.00;;
50104;SDS011;47690;39.202;-77.198;2023-02-28T12:59:02;2.30;;;2.10;;
50104;SDS011;47690;39.202;-77.198;2023-02-28T13:07:59;2.10;;;1.92;;
50104;SDS011;47690;39.202;-77.198;2023-02-28T13:10:42;2.60;;;2.03;;
50104;SDS011;47690;39.202;-77.198;2023-02-28T13:13:16;2.40;;;2.20;;
50104;SDS011;47690;39.202;-77.198;2023-02-28T13:15:57;2.25;;;2.05;;
50104;SDS011;47690;39.202;-77.198;2023-02-28T13:18:30;2.25;;;2.05;;
50104;SDS011;47690;39.202;-77.198;2023-02-28T13:21:10;2.97;;;2.38;;
50104;SDS011;47690;39.202;-77.198;2023-02-28T13:24:00;2.70;;;2.17;;
50104;SDS011;47690;39.202;-77.198;2023-02-28T13:34:37;2.58;;;2.38;;
50104;SDS011;47690;39.202;-77.198;2023-02-28T13:37:34;2.58;;;2.38;;
50104;SDS011;47690;39.202;-77.198;2023-02-28T13:42:58;3.05;;;2.40;;
50104;SDS011;47690;39.202;-77.198;2023-02-28T13:45:29;2.60;;;2.40;;
50104;SDS011;47690;39.202;-77.198;2023-02-28T13:48:18;2.90;;;2.50;;
50104;SDS011;47690;39.202;-77.198;2023-02-28T13:50:56;2.60;;;2.40;;
50104;SDS011;47690;39.202;-77.198;2023-02-28T13:53:53;2.97;;;2.58;;
50104;SDS011;47690;39.202;-77.198;2023-02-28T14:02:53;2.80;;;2.40;;
50104;SDS011;47690;39.202;-77.198;2023-02-28T14:08:54;2.85;;;2.55;;
50104;SDS011;47690;39.202;-77.198;2023-02-28T14:11:40;2.95;;;2.65;;
50104;SDS011;47690;39.202;-77.198;2023-02-28T14:17:06;2.50;;;2.30;;
50104;SDS011;47690;39.202;-77.198;2023-02-28T14:19:43;3.13;;;2.53;;
50104;SDS011;47690;39.202;-77.198;2023-02-28T14:22:34;2.88;;;2.50;;
50104;SDS011;47690;39.202;-77.198;2023-02-28T14:28:11;2.90;;;2.60;;
50104;SDS011;47690;39.202;-77.198;2023-02-28T14:31:12;2.80;;;2.50;;
50104;SDS011;47690;39.202;-77.198;2023-02-28T14:36:33;3.00;;;2.70;;
50104;SDS011;47690;39.202;-77.198;2023-02-28T14:39:13;2.50;;;2.28;;
50104;SDS011;47690;39.202;-77.198;2023-02-28T14:41:44;4.28;;;2.70;;
50104;SDS011;47690;39.202;-77.198;2023-02-28T14:44:22;2.47;;;2.28;;
50104;SDS011;47690;39.202;-77.198;2023-02-28T14:47:02;2.45;;;2.15;;
50104;SDS011;47690;39.202;-77.198;2023-02-28T14:49:42;3.00;;;2.58;;
50104;SDS011;47690;39.202;-77.198;2023-02-28T14:52:17;2.60;;;2.30;;
50104;SDS011;47690;39.202;-77.198;2023-02-28T14:54:51;3.28;;;2.78;;
50104;SDS011;47690;39.202;-77.198;2023-02-28T14:57:26;3.60;;;2.47;;
50104;SDS011;47690;39.202;-77.198;2023-02-28T15:02:39;2.80;;;2.45;;
50104;SDS011;47690;39.202;-77.198;2023-02-28T15:10:20;2.40;;;2.20;;
50104;SDS011;47690;39.202;-77.198;2023-02-28T15:16:13;2.65;;;2.33;;
50104;SDS011;47690;39.202;-77.198;2023-02-28T15:18:38;2.50;;;2.30;;
50104;SDS011;47690;39.202;-77.198;2023-02-28T15:21:29;2.67;;;2.47;;
50104;SDS011;47690;39.202;-77.198;2023-02-28T15:27:07;2.78;;;2.53;;
50104;SDS011;47690;39.202;-77.198;2023-02-28T15:29:51;3.03;;;2.72;;
50104;SDS011;47690;39.202;-77.198;2023-02-28T15:32:27;2.88;;;2.45;;
50104;SDS011;47690;39.202;-77.198;2023-02-28T15:37:56;2.53;;;2.30;;
50104;SDS011;47690;39.202;-77.198;2023-02-28T15:40:31;2.60;;;2.40;;
50104;SDS011;47690;39.202;-77.198;2023-02-28T15:43:16;2.47;;;2.28;;
50104;SDS011;47690;39.202;-77.198;2023-02-28T15:48:54;2.83;;;2.53;;
50104;SDS011;47690;39.202;-77.198;2023-02-28T15:54:05;2.47;;;2.28;;
50104;SDS011;47690;39.202;-77.198;2023-02-28T15:56:43;2.65;;;2.45;;
50104;SDS011;47690;39.202;-77.198;2023-02-28T15:59:17;2.40;;;2.20;;
50104;SDS011;47690;39.202;-77.198;2023-02-28T16:04:55;2.58;;;2.38;;
50104;SDS011;47690;39.202;-77.198;2023-02-28T16:07:37;2.38;;;2.17;;
50104;SDS011;47690;39.202;-77.198;2023-02-28T16:10:12;2.42;;;2.22;;
50104;SDS011;47690;39.202;-77.198;2023-02-28T16:12:45;2.55;;;2.22;;
50104;SDS011;47690;39.202;-77.198;2023-02-28T16:15:21;2.30;;;2.10;;
50104;SDS011;47690;39.202;-77.198;2023-02-28T16:18:00;2.15;;;1.95;;
50104;SDS011;47690;39.202;-77.198;2023-02-28T16:20:31;2.63;;;2.20;;
50104;SDS011;47690;39.202;-77.198;2023-02-28T16:23:03;2.00;;;1.90;;
50104;SDS011;47690;39.202;-77.198;2023-02-28T16:25:34;2.22;;;2.03;;
50104;SDS011;47690;39.202;-77.198;2023-02-28T16:28:12;2.42;;;2.20;;
50104;SDS011;47690;39.202;-77.198;2023-02-28T16:30:53;2.70;;;2.10;;
50104;SDS011;47690;39.202;-77.198;2023-02-28T16:33:29;2.90;;;2.33;;
50104;SDS011;47690;39.202;-77.198;2023-02-28T16:36:00;2.20;;;2.00;;
50104;SDS011;47690;39.202;-77.198;2023-02-28T16:38:31;2.30;;;2.10;;
50104;SDS011;47690;39.202;-77.198;2023-02-28T16:41:03;2.13;;;1.92;;
50104;SDS011;47690;39.202;-77.198;2023-02-28T16:43:37;2.20;;;2.00;;
50104;SDS011;47690;39.202;-77.198;2023-02-28T16:46:10;2.10;;;1.90;;
50104;SDS011;47690;39.202;-77.198;2023-02-28T16:48:44;2.28;;;2.08;;
50104;SDS011;47690;39.202;-77.198;2023-02-28T16:51:19;2.30;;;2.10;;
50104;SDS011;47690;39.202;-77.198;2023-02-28T16:53:49;2.83;;;2.25;;
50104;SDS011;47690;39.202;-77.198;2023-02-28T16:56:19;2.42;;;2.22;;
50104;SDS011;47690;39.202;-77.198;2023-02-28T16:58:57;2.47;;;2.20;;
50104;SDS011;47690;39.202;-77.198;2023-02-28T17:01:31;2.60;;;2.30;;
50104;SDS011;47690;39.202;-77.198;2023-02-28T17:04:03;2.45;;;2.25;;
50104;SDS011;47690;39.202;-77.198;2023-02-28T17:06:32;2.85;;;2.30;;
50104;SDS011;47690;39.202;-77.198;2023-02-28T17:09:01;2.88;;;2.38;;
50104;SDS011;47690;39.202;-77.198;2023-02-28T17:11:33;3.60;;;2.30;;
50104;SDS011;47690;39.202;-77.198;2023-02-28T17:14:05;3.75;;;2.10;;
50104;SDS011;47690;39.202;-77.198;2023-02-28T17:16:37;2.38;;;2.13;;
50104;SDS011;47690;39.202;-77.198;2023-02-28T17:19:13;2.28;;;2.08;;
50104;SDS011;47690;39.202;-77.198;2023-02-28T17:21:49;2.50;;;2.13;;